createdAt,value
2023-04-25T00:00:04.929Z,98779.72
2023-04-25T00:05:09.238Z,98775.31
2023-04-25T00:10:12.958Z,98771.25
2023-04-25T00:15:17.322Z,98767.25
2023-04-25T00:20:20.822Z,98762.84
2023-04-25T00:25:24.693Z,98775.66
2023-04-25T00:30:29.413Z,98778.84
2023-04-25T00:35:33.157Z,98776.09
2023-04-25T00:40:37.623Z,98766.78
2023-04-25T00:45:42.422Z,98780.81
2023-04-25T00:50:53.134Z,98772.69
2023-04-25T00:55:56.958Z,98779.09
2023-04-25T01:01:02.050Z,98787.50
2023-04-25T01:06:05.565Z,98782.94
2023-04-25T01:11:08.762Z,98793.47
2023-04-25T01:16:13.243Z,98797.53
2023-04-25T01:21:17.775Z,98788.56
2023-04-25T01:26:22.119Z,98779.59
2023-04-25T01:31:25.934Z,98779.19
2023-04-25T01:36:31.392Z,98775.47
2023-04-25T01:41:35.411Z,98781.53
2023-04-25T01:46:38.700Z,98782.16
2023-04-25T01:51:43.858Z,98773.34
2023-04-25T01:56:52.351Z,98771.22
2023-04-25T02:01:55.634Z,98776.47
2023-04-25T02:07:00.659Z,98775.56
2023-04-25T02:12:03.892Z,98780.25
2023-04-25T02:17:07.068Z,98779.66
2023-04-25T02:22:11.581Z,98772.03
2023-04-25T02:27:14.585Z,98780.50
2023-04-25T02:32:17.576Z,98787.97
2023-04-25T02:37:21.903Z,98792.47
2023-04-25T02:42:25.226Z,98792.94
2023-04-25T02:47:28.809Z,98787.06
2023-04-25T02:52:33.306Z,98779.44
2023-04-25T02:57:36.350Z,98772.09
2023-04-25T03:02:39.546Z,98778.50
2023-04-25T03:07:44.651Z,98785.06
2023-04-25T03:12:47.698Z,98777.72
2023-04-25T03:17:51.058Z,98784.97
2023-04-25T03:22:56.091Z,98779.06
2023-04-25T03:27:59.467Z,98781.44
2023-04-25T03:33:03.097Z,98784.88
2023-04-25T03:38:07.445Z,98778.72
2023-04-25T03:43:10.555Z,98779.63
2023-04-25T03:48:13.595Z,98800.66
2023-04-25T03:53:18.070Z,98801.50
2023-04-25T03:58:21.075Z,98811.59
2023-04-25T04:03:24.303Z,98821.66
2023-04-25T04:08:28.821Z,98819.13
2023-04-25T04:13:31.829Z,98825.38
2023-04-25T04:18:35.413Z,98832.47
2023-04-25T04:23:46.946Z,98831.91
2023-04-25T04:28:49.962Z,98833.59
2023-04-25T04:33:53.293Z,98840.81
2023-04-25T04:38:58.088Z,98843.50
2023-04-25T04:44:02.076Z,98835.16
2023-04-25T04:49:06.514Z,98850.16
2023-04-25T04:54:11.085Z,98853.44
2023-04-25T04:59:14.178Z,98846.75
2023-04-25T05:04:17.329Z,98847.16
2023-04-25T05:09:21.717Z,98850.59
2023-04-25T05:14:24.796Z,98851.56
2023-04-25T05:19:28.020Z,98850.53
2023-04-25T05:24:32.591Z,98854.50
2023-04-25T05:29:36.136Z,98854.78
2023-04-25T05:34:39.200Z,98860.16
2023-04-25T05:39:43.533Z,98856.41
2023-04-25T05:44:46.558Z,98861.47
2023-04-25T05:49:49.592Z,98868.81
2023-04-25T05:54:54.024Z,98878.41
2023-04-25T05:59:57.401Z,98879.75
2023-04-25T06:05:01.368Z,98891.63
2023-04-25T06:10:08.158Z,98888.66
2023-04-25T06:15:24.523Z,98893.75
2023-04-25T06:20:31.102Z,98897.03
2023-04-25T06:25:35.478Z,98897.81
2023-04-25T06:30:38.501Z,98894.56
2023-04-25T06:35:41.674Z,98900.50
2023-04-25T06:40:46.236Z,98896.63
2023-04-25T06:45:49.460Z,98900.06
2023-04-25T06:50:52.865Z,98912.94
2023-04-25T06:55:57.448Z,98911.03
2023-04-25T07:01:00.905Z,98916.56
2023-04-25T07:06:04.107Z,98919.53
2023-04-25T07:11:08.855Z,98932.28
2023-04-25T07:16:12.149Z,98942.72
2023-04-25T07:21:15.573Z,98942.28
2023-04-25T07:26:20.394Z,98942.25
2023-04-25T07:31:25.071Z,98942.81
2023-04-25T07:36:28.830Z,98952.59
2023-04-25T07:41:33.829Z,98958.34
2023-04-25T07:46:37.058Z,98971.38
2023-04-25T07:51:40.416Z,98968.34
2023-04-25T07:56:51.949Z,98964.31
2023-04-25T08:01:58.164Z,98974.56
2023-04-25T08:07:01.418Z,98990.09
2023-04-25T08:12:06.279Z,99003.59
2023-04-25T08:17:09.289Z,98993.41
2023-04-25T08:22:13.633Z,99001.56
2023-04-25T08:27:18.009Z,98998.59
2023-04-25T08:32:22.137Z,99007.88
2023-04-25T08:37:25.189Z,99023.63
2023-04-25T08:42:32.884Z,99012.66
2023-04-25T08:47:36.714Z,99018.59
2023-04-25T08:52:45.975Z,99018.00
2023-04-25T08:57:51.521Z,99021.47
2023-04-25T09:02:54.840Z,99026.97
2023-04-25T09:07:59.088Z,99053.75
2023-04-25T09:13:07.614Z,99050.25
2023-04-25T09:18:10.727Z,99050.84
2023-04-25T09:23:16.906Z,99070.84
2023-04-25T09:28:30.891Z,99072.13
2023-04-25T09:33:36.987Z,99078.84
2023-04-25T09:38:43.297Z,99088.41
2023-04-25T09:43:48.618Z,99097.16
2023-04-25T09:48:54.598Z,99103.75
2023-04-25T09:53:57.599Z,99105.81
2023-04-25T09:59:02.218Z,99113.81
2023-04-25T10:04:07.965Z,99122.09
2023-04-25T10:09:11.318Z,99128.53
2023-04-25T10:14:16.549Z,99137.16
2023-04-25T10:19:20.201Z,99130.59
2023-04-25T10:24:23.974Z,99137.25
2023-04-25T10:29:28.513Z,99129.28
2023-04-25T10:34:42.531Z,99125.34
2023-04-25T10:39:46.578Z,99124.56
2023-04-25T10:45:07.060Z,99135.53
2023-04-25T10:50:10.830Z,99136.81
2023-04-25T10:55:14.290Z,99138.69
2023-04-25T11:00:20.825Z,99149.53
2023-04-25T11:05:36.490Z,99144.00
2023-04-25T11:10:44.676Z,99139.09
2023-04-25T11:16:03.191Z,99136.88
2023-04-25T11:21:15.591Z,99133.16
2023-04-25T11:26:18.615Z,99143.97
2023-04-25T11:31:23.657Z,99149.00
2023-04-25T11:36:27.840Z,99146.00
2023-04-25T11:41:30.936Z,99143.72
2023-04-25T11:46:37.069Z,99154.47
2023-04-25T11:51:41.395Z,99157.03
2023-04-25T11:56:45.642Z,99168.09
2023-04-25T12:01:52.201Z,99166.47
2023-04-25T12:06:57.477Z,99182.75
2023-04-25T12:12:03.724Z,99176.63
2023-04-25T12:17:09.377Z,99180.59
2023-04-25T12:22:24.029Z,99170.31
2023-04-25T12:27:29.621Z,99175.91
2023-04-25T12:32:34.437Z,99177.84
2023-04-25T12:37:37.651Z,99175.38
2023-04-25T12:42:40.864Z,99177.78
2023-04-25T12:47:45.416Z,99176.84
2023-04-25T12:52:49.906Z,99189.69
2023-04-25T12:57:53.386Z,99191.63
2023-04-25T13:02:58.029Z,99179.38
2023-04-25T13:08:01.379Z,99192.28
2023-04-25T13:13:05.695Z,99216.75
2023-04-25T13:18:10.230Z,99198.00
2023-04-25T13:23:13.282Z,99183.41
2023-04-25T13:28:16.978Z,99192.06
2023-04-25T13:33:22.216Z,99209.53
2023-04-25T13:38:26.348Z,99203.53
2023-04-25T13:43:29.799Z,99198.28
2023-04-25T13:48:34.252Z,99194.13
2023-04-25T13:53:37.256Z,99201.13
2023-04-25T13:58:40.321Z,99199.16
2023-04-25T14:03:45.028Z,99210.19
2023-04-25T14:08:48.071Z,99217.38
2023-04-25T14:13:51.552Z,99218.78
2023-04-25T14:18:56.760Z,99223.50
2023-04-25T14:23:59.944Z,99229.78
2023-04-25T14:29:03.005Z,99235.38
2023-04-25T14:34:07.884Z,99228.25
2023-04-25T14:39:11.029Z,99238.31
2023-04-25T14:44:14.431Z,99242.53
2023-04-25T14:49:18.968Z,99235.66
2023-04-25T14:54:22.406Z,99236.84
2023-04-25T14:59:25.776Z,99244.41
2023-04-25T15:04:30.738Z,99246.16
2023-04-25T15:09:34.618Z,99254.66
2023-04-25T15:14:37.916Z,99249.72
2023-04-25T15:19:42.424Z,99251.53
2023-04-25T15:24:45.492Z,99253.06
2023-04-25T15:29:48.494Z,99256.09
2023-04-25T15:34:53.027Z,99256.41
2023-04-25T15:40:04.698Z,99266.13
2023-04-25T15:45:09.929Z,99260.38
2023-04-25T15:50:15.817Z,99263.34
2023-04-25T15:55:21.015Z,99262.81
2023-04-25T16:00:24.293Z,99265.69
2023-04-25T16:05:28.658Z,99271.09
2023-04-25T16:10:31.735Z,99275.50
2023-04-25T16:15:35.626Z,99279.03
2023-04-25T16:20:40.333Z,99273.78
2023-04-25T16:25:44.347Z,99277.31
2023-04-25T16:30:47.404Z,99275.03
2023-04-25T16:35:52.887Z,99273.72
2023-04-25T16:40:56.178Z,99266.34
2023-04-25T16:45:59.285Z,99270.47
2023-04-25T16:51:03.791Z,99272.81
2023-04-25T16:56:08.097Z,99285.56
2023-04-25T17:01:15.766Z,99287.47
2023-04-25T17:06:20.147Z,99294.22
2023-04-25T17:11:23.223Z,99302.00
2023-04-25T17:16:36.288Z,99306.66
2023-04-25T17:21:40.986Z,99310.66
2023-04-25T17:26:44.373Z,99305.59
2023-04-25T17:31:48.632Z,99319.03
2023-04-25T17:36:53.041Z,99327.34
2023-04-25T17:41:56.320Z,99323.84
2023-04-25T17:47:01.320Z,99331.50
2023-04-25T17:52:06.339Z,99332.06
2023-04-25T17:57:09.353Z,99340.34
2023-04-25T18:02:12.482Z,99337.50
2023-04-25T18:07:17.215Z,99353.50
2023-04-25T18:12:21.269Z,99360.81
2023-04-25T18:17:25.513Z,99365.94
2023-04-25T18:22:29.858Z,99368.63
2023-04-25T18:27:33.013Z,99368.88
2023-04-25T18:32:37.006Z,99375.63
2023-04-25T18:37:42.339Z,99388.78
2023-04-25T18:42:46.041Z,99389.50
2023-04-25T18:47:49.079Z,99395.75
2023-04-25T18:52:54.127Z,99407.13
2023-04-25T18:57:57.167Z,99416.47
2023-04-25T19:03:03.248Z,99415.53
2023-04-25T19:08:07.894Z,99431.97
2023-04-25T19:13:11.284Z,99435.91
2023-04-25T19:18:14.635Z,99436.97
2023-04-25T19:23:19.260Z,99437.22
2023-04-25T19:28:22.976Z,99453.59
2023-04-25T19:33:26.296Z,99442.16
2023-04-25T19:38:30.916Z,99450.56
2023-04-25T19:43:33.897Z,99461.94
2023-04-25T19:48:36.903Z,99462.94
2023-04-25T19:53:41.253Z,99461.03
2023-04-25T19:58:44.259Z,99460.81
2023-04-25T20:03:48.247Z,99461.44
2023-04-25T20:08:54.491Z,99467.91
2023-04-25T20:13:57.796Z,99477.22
2023-04-25T20:19:01.433Z,99477.44
2023-04-25T20:24:06.818Z,99487.72
2023-04-25T20:29:10.036Z,99479.28
2023-04-25T20:34:13.484Z,99491.91
2023-04-25T20:39:17.816Z,99484.91
2023-04-25T20:44:23.286Z,99486.38
2023-04-25T20:49:26.789Z,99488.31
2023-04-25T20:54:32.051Z,99492.00
2023-04-25T20:59:35.109Z,99492.63
2023-04-25T21:04:38.149Z,99497.00
2023-04-25T21:09:43.492Z,99494.09
2023-04-25T21:14:46.500Z,99504.22
2023-04-25T21:19:49.680Z,99504.34
2023-04-25T21:24:56.979Z,99515.34
2023-04-25T21:30:00.001Z,99516.56
2023-04-25T21:35:03.029Z,99514.34
2023-04-25T21:40:09.074Z,99513.38
2023-04-25T21:45:12.364Z,99511.28
2023-04-25T21:50:15.647Z,99505.50
2023-04-25T21:55:21.976Z,99503.16
2023-04-25T22:00:27.320Z,99509.66
2023-04-25T22:05:31.387Z,99505.47
2023-04-25T22:10:35.762Z,99507.06
2023-04-25T22:15:38.748Z,99517.31
2023-04-25T22:20:41.820Z,99516.97
2023-04-25T22:25:46.214Z,99519.53
2023-04-25T22:30:49.438Z,99527.97
2023-04-25T22:35:52.442Z,99538.94
2023-04-25T22:40:56.815Z,99545.16
2023-04-25T22:45:59.890Z,99552.38
2023-04-25T22:51:03.526Z,99567.22
2023-04-25T22:56:08.104Z,99568.00
2023-04-25T23:01:11.316Z,99577.22
2023-04-25T23:06:14.725Z,99571.84
2023-04-25T23:11:20.280Z,99580.06
2023-04-25T23:16:23.342Z,99574.03
2023-04-25T23:21:26.740Z,99583.31
2023-04-25T23:26:31.477Z,99594.28
2023-04-25T23:31:34.570Z,99597.22
2023-04-25T23:36:37.845Z,99593.72
2023-04-25T23:41:42.592Z,99594.38
2023-04-25T23:46:46.029Z,99590.19
2023-04-25T23:51:49.549Z,99590.63
2023-04-25T23:56:54.169Z,99593.56
